Time;durP1;ratioP1;P1;durP2;ratioP2;P2;SDS_P1;SDS_P2;PMS_P1;PMS_P2;Temp;Humidity;BMP_temperature;BMP_pressure;BME280_temperature;BME280_humidity;BME280_pressure;Samples;Min_cycle;Max_cycle;Signal;HPM_P1;HPM_P2
2023/03/11 00:02:18;;;;;;;0.50;0.50;;;3.60;79.30;;;;;;4980006;28;20026;-78
2023/03/11 00:04:43;;;;;;;0.40;0.38;;;3.50;78.40;;;;;;4992602;28;20022;-78
2023/03/11 00:07:10;;;;;;;0.85;0.63;;;3.40;78.30;;;;;;4998821;28;20479;-78
2023/03/11 00:09:36;;;;;;;0.40;0.40;;;3.30;77.00;;;;;;5004219;28;20501;-77
2023/03/11 00:12:02;;;;;;;0.30;0.30;;;3.30;76.20;;;;;;5012593;28;20068;-78
2023/03/11 00:14:28;;;;;;;0.40;0.40;;;3.20;76.70;;;;;;4974303;28;20391;-77
2023/03/11 00:16:54;;;;;;;0.30;0.30;;;3.00;77.20;;;;;;4974354;28;20033;-78
2023/03/11 00:19:20;;;;;;;0.60;0.50;;;3.00;77.00;;;;;;4974495;28;20484;-79
2023/03/11 00:21:46;;;;;;;0.38;0.38;;;3.00;76.80;;;;;;4974640;28;20058;-79
2023/03/11 00:24:12;;;;;;;1.38;0.40;;;2.90;76.70;;;;;;4990694;28;20026;-78
2023/03/11 00:26:37;;;;;;;0.90;0.60;;;2.80;77.00;;;;;;4993885;28;20030;-79
2023/03/11 00:29:03;;;;;;;1.23;0.38;;;2.70;77.30;;;;;;4993754;28;20022;-78
2023/03/11 00:31:29;;;;;;;1.45;0.47;;;2.70;77.30;;;;;;4992039;28;20033;-78
2023/03/11 00:33:56;;;;;;;0.28;0.28;;;2.70;77.60;;;;;;4991780;28;20038;-78
2023/03/11 00:36:32;;;;;;;0.57;0.50;;;2.60;77.50;;;;;;4992328;28;20026;-78
2023/03/11 00:39:00;;;;;;;0.75;0.40;;;2.60;78.00;;;;;;5004459;28;20025;-78
2023/03/11 00:41:27;;;;;;;0.52;0.52;;;2.60;78.20;;;;;;5011566;28;20022;-78
2023/03/11 00:43:52;;;;;;;0.20;0.20;;;2.50;78.30;;;;;;5006368;28;20098;-80
2023/03/11 00:46:18;;;;;;;1.27;0.60;;;2.50;78.30;;;;;;4983546;28;20034;-78
2023/03/11 00:48:44;;;;;;;0.68;0.40;;;2.50;78.40;;;;;;4976393;28;20063;-76
2023/03/11 00:51:14;;;;;;;0.47;0.47;;;2.50;78.90;;;;;;4977776;28;20410;-77
2023/03/11 00:53:40;;;;;;;0.30;0.30;;;2.40;78.80;;;;;;4979194;28;20026;-77
2023/03/11 00:56:08;;;;;;;1.05;0.43;;;2.40;79.10;;;;;;4976727;28;20165;-77
2023/03/11 00:58:34;;;;;;;2.60;0.38;;;2.40;79.10;;;;;;4981352;28;20026;-77
2023/03/11 01:01:05;;;;;;;0.50;0.40;;;2.40;79.40;;;;;;4981831;28;20030;-78
2023/03/11 01:03:31;;;;;;;0.40;0.40;;;2.40;79.70;;;;;;4983642;28;20275;-77
2023/03/11 01:05:56;;;;;;;0.50;0.50;;;2.40;79.70;;;;;;4990671;28;20081;-78
2023/03/11 01:08:22;;;;;;;0.38;0.30;;;2.40;79.90;;;;;;4994111;28;20107;-78
2023/03/11 01:10:48;;;;;;;0.85;0.47;;;2.40;80.20;;;;;;4996252;28;20088;-79
2023/03/11 01:13:13;;;;;;;0.40;0.40;;;2.30;80.40;;;;;;4992754;28;20039;-80
2023/03/11 01:15:39;;;;;;;0.45;0.30;;;2.30;80.70;;;;;;4992626;28;20428;-79
2023/03/11 01:18:05;;;;;;;0.47;0.43;;;2.30;80.70;;;;;;4992993;28;20054;-79
2023/03/11 01:20:31;;;;;;;0.52;0.50;;;2.20;81.00;;;;;;4992997;28;20093;-78
2023/03/11 01:22:56;;;;;;;2.50;0.30;;;2.20;81.20;;;;;;4992966;28;20077;-78
2023/03/11 01:25:23;;;;;;;1.02;0.50;;;2.20;81.40;;;;;;4992156;28;20026;-77
2023/03/11 01:27:49;;;;;;;0.95;0.25;;;2.20;81.50;;;;;;4993264;28;20380;-76
2023/03/11 01:30:19;;;;;;;0.45;0.30;;;2.10;81.60;;;;;;4993621;28;20026;-77
2023/03/11 01:32:45;;;;;;;1.05;0.40;;;2.10;81.90;;;;;;5018564;23;20061;-75
2023/03/11 01:35:13;;;;;;;1.88;1.33;;;2.10;82.00;;;;;;5017114;28;20032;-75
2023/03/11 01:37:39;;;;;;;0.90;0.55;;;2.10;82.00;;;;;;5029536;28;20109;-74
2023/03/11 01:40:06;;;;;;;1.15;0.50;;;2.10;81.60;;;;;;5025143;28;20053;-75
2023/03/11 01:42:32;;;;;;;0.50;0.40;;;2.10;81.20;;;;;;5037617;28;20478;-74
2023/03/11 01:44:58;;;;;;;0.45;0.30;;;2.10;81.40;;;;;;5014016;28;20036;-74
2023/03/11 01:47:31;;;;;;;0.73;0.50;;;2.10;81.60;;;;;;4995990;28;20026;-75
2023/03/11 01:49:56;;;;;;;0.35;0.30;;;2.10;81.60;;;;;;4994139;28;20037;-74
2023/03/11 01:52:22;;;;;;;0.52;0.52;;;2.00;81.40;;;;;;4994757;28;20034;-74
2023/03/11 01:54:48;;;;;;;0.40;0.40;;;2.00;81.50;;;;;;4996424;28;20054;-75
2023/03/11 01:57:14;;;;;;;0.40;0.40;;;2.00;81.00;;;;;;4992960;28;20042;-75
2023/03/11 01:59:45;;;;;;;0.57;0.50;;;2.00;80.90;;;;;;4994071;28;20030;-75
2023/03/11 02:02:31;;;;;;;0.90;0.50;;;2.10;80.10;;;;;;4993857;28;20502;-74
2023/03/11 02:04:59;;;;;;;0.50;0.30;;;2.00;80.10;;;;;;4993090;28;20040;-75
2023/03/11 02:07:25;;;;;;;0.30;0.30;;;2.00;79.90;;;;;;4999439;28;20030;-75
2023/03/11 02:09:50;;;;;;;0.40;0.40;;;2.00;80.10;;;;;;5006565;28;20034;-74
2023/03/11 02:12:16;;;;;;;0.50;0.50;;;1.90;80.20;;;;;;5013031;28;20026;-75
2023/03/11 02:14:45;;;;;;;0.55;0.25;;;1.90;79.80;;;;;;5013024;28;20387;-75
2023/03/11 02:17:12;;;;;;;0.38;0.38;;;1.90;79.90;;;;;;5013099;28;20052;-75
2023/03/11 02:20:01;;;;;;;0.40;0.40;;;1.80;79.80;;;;;;5016139;28;20093;-75
2023/03/11 02:22:30;;;;;;;0.50;0.32;;;1.80;79.80;;;;;;5013783;28;20029;-75
2023/03/11 02:25:11;;;;;;;0.40;0.40;;;1.80;79.90;;;;;;5013289;28;20080;-76
2023/03/11 02:27:41;;;;;;;1.35;0.47;;;1.80;80.00;;;;;;5013095;28;20063;-75
2023/03/11 02:30:11;;;;;;;0.30;0.30;;;1.80;79.40;;;;;;5013208;28;20497;-76
2023/03/11 02:32:38;;;;;;;0.38;0.30;;;1.90;78.50;;;;;;5013109;28;20475;-75
2023/03/11 02:35:05;;;;;;;0.35;0.22;;;1.80;78.40;;;;;;5013025;28;20435;-75
2023/03/11 02:37:31;;;;;;;1.48;0.50;;;1.80;78.70;;;;;;5010780;28;20030;-74
2023/03/11 02:40:22;;;;;;;2.72;0.50;;;1.80;78.90;;;;;;5000997;28;20090;-75
2023/03/11 02:42:52;;;;;;;1.65;0.43;;;1.70;79.30;;;;;;4992618;28;20027;-75
2023/03/11 02:45:21;;;;;;;0.55;0.43;;;1.70;79.30;;;;;;4993986;28;20023;-74
2023/03/11 02:47:47;;;;;;;0.43;0.35;;;1.70;79.50;;;;;;4997496;28;20022;-75
2023/03/11 02:50:15;;;;;;;0.65;0.57;;;1.70;79.40;;;;;;5013433;28;20054;-74
2023/03/11 02:52:41;;;;;;;1.77;0.60;;;1.70;79.40;;;;;;5012151;28;20033;-75
2023/03/11 02:55:07;;;;;;;0.82;0.40;;;1.70;79.50;;;;;;5012697;28;20037;-75
2023/03/11 02:57:33;;;;;;;0.30;0.30;;;1.70;79.50;;;;;;5012929;28;20080;-72
2023/03/11 03:00:05;;;;;;;1.15;0.43;;;1.60;79.60;;;;;;5010574;28;20029;-76
2023/03/11 03:02:30;;;;;;;0.30;0.30;;;1.60;79.30;;;;;;5012820;28;20030;-74
2023/03/11 03:04:56;;;;;;;0.77;0.50;;;1.70;78.60;;;;;;5003781;28;20100;-74
2023/03/11 03:07:22;;;;;;;0.32;0.30;;;1.70;78.70;;;;;;5007416;28;20018;-75
2023/03/11 03:09:47;;;;;;;0.45;0.45;;;1.60;78.50;;;;;;5006578;28;20026;-76
2023/03/11 03:12:13;;;;;;;0.35;0.35;;;1.60;78.80;;;;;;5012938;28;20029;-76
2023/03/11 03:14:39;;;;;;;0.38;0.30;;;1.50;78.90;;;;;;5011859;28;20371;-75
2023/03/11 03:17:04;;;;;;;0.22;0.22;;;1.50;79.00;;;;;;5013399;28;20034;-75
2023/03/11 03:19:30;;;;;;;2.20;0.47;;;1.50;79.30;;;;;;5016168;28;20070;-75
2023/03/11 03:21:55;;;;;;;0.40;0.40;;;1.40;79.40;;;;;;5016504;28;20545;-75
2023/03/11 03:24:21;;;;;;;0.32;0.30;;;1.40;79.60;;;;;;5016798;28;20029;-75
2023/03/11 03:26:47;;;;;;;0.70;0.40;;;1.40;79.80;;;;;;4999738;28;20038;-75
2023/03/11 03:29:12;;;;;;;0.35;0.35;;;1.40;79.80;;;;;;4997378;28;20061;-74
2023/03/11 03:31:38;;;;;;;0.47;0.47;;;1.40;79.70;;;;;;5008139;28;20049;-75
2023/03/11 03:34:04;;;;;;;0.98;0.40;;;1.40;79.70;;;;;;5009404;28;20099;-74
2023/03/11 03:36:29;;;;;;;1.02;0.32;;;1.40;79.50;;;;;;5012308;28;20086;-75
2023/03/11 03:38:56;;;;;;;0.30;0.30;;;1.40;79.70;;;;;;5017070;28;20034;-75
2023/03/11 03:41:22;;;;;;;0.35;0.35;;;1.40;79.30;;;;;;4997114;28;20022;-74
2023/03/11 03:43:48;;;;;;;1.25;0.30;;;1.40;78.80;;;;;;4998835;28;20034;-74
2023/03/11 03:46:14;;;;;;;1.70;0.80;;;1.40;79.20;;;;;;4996919;28;20022;-76
2023/03/11 03:48:40;;;;;;;1.40;0.38;;;1.30;79.30;;;;;;4996474;28;20106;-76
2023/03/11 03:51:09;;;;;;;0.60;0.45;;;1.30;79.10;;;;;;4996846;28;20046;-76
2023/03/11 03:53:35;;;;;;;0.82;0.30;;;1.30;79.20;;;;;;4996237;28;20034;-76
2023/03/11 03:56:09;;;;;;;0.60;0.40;;;1.30;79.20;;;;;;4996474;28;20102;-75
2023/03/11 03:58:35;;;;;;;0.77;0.30;;;1.30;79.50;;;;;;5015602;28;20034;-74
2023/03/11 04:01:02;;;;;;;2.50;0.38;;;1.20;79.60;;;;;;5016587;28;20429;-74
2023/03/11 04:03:28;;;;;;;0.47;0.38;;;1.20;79.70;;;;;;5016270;28;20352;-75
2023/03/11 04:06:03;;;;;;;1.33;0.40;;;1.20;79.80;;;;;;5014100;28;20036;-75
2023/03/11 04:08:29;;;;;;;0.35;0.35;;;1.20;80.00;;;;;;5006212;28;20030;-75
2023/03/11 04:10:58;;;;;;;0.55;0.40;;;1.20;80.00;;;;;;5017283;28;20102;-74
2023/03/11 04:13:23;;;;;;;0.35;0.35;;;1.20;80.00;;;;;;5016445;28;20022;-74
2023/03/11 04:15:49;;;;;;;0.30;0.30;;;1.20;80.20;;;;;;5014595;28;20026;-73
2023/03/11 04:18:15;;;;;;;1.05;0.35;;;1.20;80.20;;;;;;5001842;28;20023;-75
2023/03/11 04:20:40;;;;;;;0.35;0.32;;;1.20;80.30;;;;;;4996750;28;20498;-74
2023/03/11 04:23:06;;;;;;;1.85;0.40;;;1.10;80.50;;;;;;4995439;28;20041;-74
2023/03/11 04:25:33;;;;;;;0.30;0.30;;;1.10;80.70;;;;;;4995510;28;20081;-73
2023/03/11 04:27:58;;;;;;;1.55;0.40;;;1.10;80.90;;;;;;4995334;28;20027;-75
2023/03/11 04:30:24;;;;;;;0.73;0.63;;;1.10;80.80;;;;;;4995174;28;20053;-75
2023/03/11 04:32:50;;;;;;;0.40;0.40;;;1.10;80.90;;;;;;4994946;28;20113;-76
2023/03/11 04:35:15;;;;;;;0.28;0.28;;;1.10;81.10;;;;;;4996059;28;20026;-75
2023/03/11 04:37:41;;;;;;;0.95;0.40;;;1.00;81.30;;;;;;5006221;28;20026;-75
2023/03/11 04:40:08;;;;;;;0.32;0.20;;;1.00;81.50;;;;;;5003599;28;20022;-75
2023/03/11 04:42:34;;;;;;;0.45;0.20;;;1.00;81.70;;;;;;4996955;28;20064;-76
2023/03/11 04:44:59;;;;;;;0.45;0.30;;;1.10;81.90;;;;;;5000535;28;20026;-74
2023/03/11 04:47:25;;;;;;;0.20;0.20;;;1.10;81.90;;;;;;5011203;28;20085;-74
2023/03/11 04:49:51;;;;;;;0.40;0.20;;;1.10;81.90;;;;;;5015637;28;20038;-75
2023/03/11 04:52:16;;;;;;;1.10;0.30;;;1.20;81.80;;;;;;4999943;28;20037;-75
2023/03/11 04:54:42;;;;;;;1.00;0.73;;;1.30;81.60;;;;;;4995276;28;20455;-75
2023/03/11 04:57:07;;;;;;;0.40;0.40;;;1.40;81.50;;;;;;4997468;28;20061;-77
2023/03/11 04:59:33;;;;;;;0.40;0.40;;;1.40;81.10;;;;;;5011712;28;20026;-76
2023/03/11 05:01:59;;;;;;;1.00;0.32;;;1.50;80.90;;;;;;5014802;28;20041;-76
2023/03/11 05:04:24;;;;;;;1.70;0.40;;;1.60;80.50;;;;;;5003334;28;20102;-76
2023/03/11 05:06:50;;;;;;;0.32;0.20;;;1.60;80.40;;;;;;4997781;28;20030;-76
2023/03/11 05:09:16;;;;;;;0.25;0.25;;;1.70;80.40;;;;;;5008617;28;20449;-76
2023/03/11 05:11:41;;;;;;;0.52;0.40;;;1.70;80.50;;;;;;5014628;28;20101;-76
2023/03/11 05:14:07;;;;;;;0.30;0.30;;;1.70;80.20;;;;;;5014451;28;20025;-77
2023/03/11 05:16:33;;;;;;;0.98;0.32;;;1.70;79.90;;;;;;5016975;28;20037;-77
2023/03/11 05:18:58;;;;;;;1.08;0.40;;;1.70;80.10;;;;;;5015314;28;20038;-77
2023/03/11 05:21:24;;;;;;;1.17;0.50;;;1.80;80.30;;;;;;5015309;28;20022;-77
2023/03/11 05:23:50;;;;;;;0.70;0.40;;;1.80;80.30;;;;;;5029847;28;20351;-77
2023/03/11 05:26:15;;;;;;;0.57;0.38;;;1.80;80.30;;;;;;5034674;28;20030;-76
2023/03/11 05:28:41;;;;;;;0.90;0.43;;;1.80;80.50;;;;;;5034132;28;20085;-76
2023/03/11 05:31:08;;;;;;;0.75;0.60;;;1.80;80.50;;;;;;5033573;28;20033;-74
2023/03/11 05:33:34;;;;;;;0.77;0.50;;;1.80;80.40;;;;;;5032381;28;20038;-76
2023/03/11 05:36:07;;;;;;;1.95;0.40;;;1.80;80.40;;;;;;5032422;28;20049;-76
2023/03/11 05:38:36;;;;;;;0.77;0.77;;;1.80;80.70;;;;;;5012949;28;20133;-77
2023/03/11 05:41:02;;;;;;;1.13;0.40;;;1.70;80.80;;;;;;4979347;28;20084;-77
2023/03/11 05:43:28;;;;;;;0.52;0.50;;;1.70;81.10;;;;;;4994002;28;20105;-76
2023/03/11 05:45:53;;;;;;;1.23;0.45;;;1.70;81.20;;;;;;4995217;28;20026;-74
2023/03/11 05:48:19;;;;;;;0.65;0.60;;;1.70;81.50;;;;;;4994316;28;20733;-75
2023/03/11 05:50:45;;;;;;;1.67;0.80;;;1.80;81.60;;;;;;4993584;28;20030;-75
2023/03/11 05:53:10;;;;;;;0.45;0.30;;;1.70;81.40;;;;;;4994125;28;20030;-75
2023/03/11 05:55:36;;;;;;;0.50;0.50;;;1.70;81.80;;;;;;4996168;28;20022;-74
2023/03/11 05:58:02;;;;;;;0.30;0.30;;;1.70;81.60;;;;;;4993543;28;20026;-74
2023/03/11 06:00:28;;;;;;;1.83;0.65;;;1.70;81.90;;;;;;4993678;28;20061;-74
2023/03/11 06:02:54;;;;;;;0.75;0.52;;;1.60;82.20;;;;;;4993817;28;20106;-74
2023/03/11 06:05:19;;;;;;;2.38;0.57;;;1.70;82.10;;;;;;5009449;28;20029;-74
2023/03/11 06:07:45;;;;;;;1.67;0.55;;;1.70;81.70;;;;;;4995593;28;20034;-74
2023/03/11 06:10:11;;;;;;;0.80;0.32;;;1.70;80.40;;;;;;5006850;28;20037;-75
2023/03/11 06:12:37;;;;;;;0.60;0.55;;;1.70;79.00;;;;;;5013302;28;20026;-75
2023/03/11 06:15:05;;;;;;;3.72;0.40;;;1.60;78.80;;;;;;5014759;28;20138;-75
2023/03/11 06:17:31;;;;;;;1.95;0.30;;;1.60;77.80;;;;;;4999221;28;20030;-75
2023/03/11 06:19:56;;;;;;;1.90;0.50;;;1.60;76.80;;;;;;5007555;28;20034;-75
2023/03/11 06:22:22;;;;;;;1.02;0.50;;;1.60;75.40;;;;;;4993424;28;20494;-75
2023/03/11 06:24:48;;;;;;;0.30;0.30;;;1.60;74.30;;;;;;4994017;28;20031;-75
2023/03/11 06:27:13;;;;;;;1.27;0.30;;;1.50;74.90;;;;;;4996682;28;20100;-74
2023/03/11 06:29:39;;;;;;;1.00;0.45;;;1.50;75.00;;;;;;5005755;28;20403;-75
2023/03/11 06:32:06;;;;;;;2.00;0.40;;;1.60;75.10;;;;;;4994938;28;20454;-74
2023/03/11 06:34:31;;;;;;;3.08;0.70;;;1.60;74.00;;;;;;4993345;28;20033;-74
2023/03/11 06:36:58;;;;;;;1.25;0.32;;;1.60;73.10;;;;;;4996528;28;20113;-74
2023/03/11 06:39:24;;;;;;;2.25;0.50;;;1.60;73.10;;;;;;5010256;28;20062;-73
2023/03/11 06:41:50;;;;;;;0.40;0.40;;;1.60;73.30;;;;;;5003876;28;20474;-74
2023/03/11 06:44:16;;;;;;;0.50;0.35;;;1.60;72.90;;;;;;4999763;28;20044;-74
2023/03/11 06:46:41;;;;;;;0.68;0.40;;;1.70;73.00;;;;;;4993596;28;20034;-73
2023/03/11 06:49:07;;;;;;;1.25;0.70;;;1.70;72.60;;;;;;5008329;28;20027;-74
2023/03/11 06:51:33;;;;;;;1.85;0.40;;;1.70;72.70;;;;;;4994088;28;20098;-74
2023/03/11 06:53:59;;;;;;;1.98;0.88;;;1.80;73.40;;;;;;4995328;28;20483;-74
2023/03/11 06:56:25;;;;;;;2.17;0.40;;;1.80;73.00;;;;;;4997961;28;20109;-74
2023/03/11 06:58:52;;;;;;;2.17;0.60;;;1.90;73.00;;;;;;5007497;28;20483;-74
2023/03/11 07:01:20;;;;;;;1.52;0.40;;;1.90;72.50;;;;;;5017063;28;20030;-74
2023/03/11 07:03:47;;;;;;;2.17;0.30;;;2.00;71.80;;;;;;5001271;28;20053;-74
2023/03/11 07:06:15;;;;;;;1.70;0.43;;;2.00;71.80;;;;;;4999494;28;20034;-75
2023/03/11 07:08:41;;;;;;;1.48;0.60;;;2.00;71.90;;;;;;5012244;28;20057;-74
2023/03/11 07:11:15;;;;;;;1.08;0.57;;;1.90;72.60;;;;;;5010654;28;20108;-74
2023/03/11 07:13:41;;;;;;;1.40;0.75;;;1.80;73.20;;;;;;5006407;28;20094;-75
2023/03/11 07:16:19;;;;;;;5.72;0.85;;;1.70;74.00;;;;;;5013812;28;20022;-74
2023/03/11 07:18:47;;;;;;;0.43;0.43;;;1.80;74.20;;;;;;4991228;28;20036;-74
2023/03/11 07:21:18;;;;;;;3.70;1.60;;;1.80;74.40;;;;;;5006377;28;20364;-74
2023/03/11 07:23:44;;;;;;;2.13;0.70;;;1.80;74.50;;;;;;4997486;28;20037;-73
2023/03/11 07:26:12;;;;;;;2.22;0.60;;;1.90;74.40;;;;;;5005435;28;20112;-74
2023/03/11 07:28:39;;;;;;;3.50;0.88;;;2.00;74.20;;;;;;5005773;28;20026;-74
2023/03/11 07:31:09;;;;;;;1.13;0.60;;;2.00;74.30;;;;;;5011652;28;20030;-74
2023/03/11 07:33:35;;;;;;;6.38;0.70;;;2.00;74.60;;;;;;5015928;28;20060;-74
2023/03/11 07:36:05;;;;;;;1.50;0.50;;;2.00;74.70;;;;;;5013299;28;20022;-75
2023/03/11 07:38:31;;;;;;;1.65;0.70;;;1.90;74.30;;;;;;5007254;28;20030;-74
2023/03/11 07:40:58;;;;;;;3.47;0.80;;;1.70;74.80;;;;;;5014711;28;20519;-74
2023/03/11 07:43:23;;;;;;;0.45;0.45;;;1.60;75.80;;;;;;5016798;28;20053;-74
2023/03/11 07:45:50;;;;;;;1.80;0.52;;;1.60;76.30;;;;;;5015030;28;20033;-76
2023/03/11 07:48:16;;;;;;;2.67;0.80;;;1.70;76.50;;;;;;5018866;28;20391;-75
2023/03/11 07:50:41;;;;;;;1.55;0.68;;;1.90;75.50;;;;;;5006764;28;20030;-75
2023/03/11 07:53:07;;;;;;;1.73;0.98;;;2.00;75.40;;;;;;5007104;28;20098;-75
2023/03/11 07:55:33;;;;;;;1.50;0.88;;;2.10;75.40;;;;;;5005701;28;20125;-73
2023/03/11 07:57:59;;;;;;;6.97;0.60;;;2.20;75.00;;;;;;4996692;28;20031;-74
2023/03/11 08:00:26;;;;;;;1.08;0.60;;;2.40;74.80;;;;;;5005403;28;20026;-74
2023/03/11 08:02:55;;;;;;;2.60;0.70;;;2.50;74.00;;;;;;5015303;28;20057;-74
2023/03/11 08:05:20;;;;;;;0.77;0.38;;;2.70;73.40;;;;;;5012073;28;20028;-74
2023/03/11 08:07:46;;;;;;;0.60;0.45;;;2.70;73.00;;;;;;5010461;28;20053;-74
2023/03/11 08:10:12;;;;;;;1.95;0.60;;;2.90;73.10;;;;;;5005110;28;20117;-74
2023/03/11 08:12:38;;;;;;;2.17;0.60;;;3.00;72.60;;;;;;4995302;28;20058;-74
2023/03/11 08:15:04;;;;;;;2.45;0.90;;;3.00;70.60;;;;;;4996244;28;20037;-74
2023/03/11 08:17:29;;;;;;;1.33;0.75;;;3.10;70.70;;;;;;5006116;28;20026;-75
2023/03/11 08:19:55;;;;;;;2.65;1.48;;;3.10;69.80;;;;;;5005634;28;20033;-73
2023/03/11 08:22:21;;;;;;;2.63;0.68;;;3.00;69.50;;;;;;4995920;28;20026;-74
2023/03/11 08:24:50;;;;;;;5.90;1.05;;;2.90;70.20;;;;;;5023232;28;20391;-73
2023/03/11 08:27:16;;;;;;;0.82;0.52;;;2.90;69.80;;;;;;4997290;28;20030;-74
2023/03/11 08:29:42;;;;;;;1.00;0.68;;;2.80;70.40;;;;;;5000792;28;20428;-74
2023/03/11 08:32:07;;;;;;;1.38;0.70;;;2.90;70.40;;;;;;5014089;28;20095;-75
2023/03/11 08:34:34;;;;;;;1.08;0.40;;;2.90;69.50;;;;;;5013779;28;20112;-74
2023/03/11 08:36:59;;;;;;;2.97;0.73;;;3.00;70.70;;;;;;5013406;28;20029;-75
2023/03/11 08:39:25;;;;;;;0.82;0.30;;;3.40;70.10;;;;;;5007656;28;20018;-75
2023/03/11 08:41:50;;;;;;;1.38;0.40;;;4.00;69.80;;;;;;5016777;28;20030;-75
2023/03/11 08:44:16;;;;;;;1.00;0.50;;;4.70;68.50;;;;;;4999127;28;20034;-74
2023/03/11 08:46:42;;;;;;;1.15;0.60;;;5.20;65.90;;;;;;5010354;28;20042;-74
2023/03/11 08:49:08;;;;;;;1.30;0.52;;;5.40;63.70;;;;;;5010659;28;20125;-74
2023/03/11 08:51:34;;;;;;;2.78;0.70;;;5.70;62.80;;;;;;5016031;28;20060;-75
2023/03/11 08:54:00;;;;;;;1.27;0.60;;;5.80;61.90;;;;;;5015054;28;20033;-75
2023/03/11 08:56:26;;;;;;;1.98;0.70;;;5.90;61.40;;;;;;4998238;28;20100;-75
2023/03/11 08:58:52;;;;;;;1.70;0.40;;;5.90;59.70;;;;;;5007139;28;20113;-74
2023/03/11 09:01:19;;;;;;;0.40;0.35;;;5.80;60.70;;;;;;5002360;28;20035;-74
2023/03/11 09:03:45;;;;;;;3.00;0.40;;;5.80;61.00;;;;;;4997940;28;20065;-75
2023/03/11 09:06:14;;;;;;;1.05;0.40;;;6.00;60.30;;;;;;5014301;28;20030;-74
2023/03/11 09:08:40;;;;;;;7.65;0.65;;;6.20;59.80;;;;;;5004701;28;20037;-74
2023/03/11 09:11:06;;;;;;;2.10;0.63;;;6.20;58.00;;;;;;5000064;28;20453;-75
2023/03/11 09:13:32;;;;;;;2.05;0.57;;;6.20;58.40;;;;;;4996458;28;20025;-74
2023/03/11 09:15:58;;;;;;;1.30;0.38;;;6.30;57.90;;;;;;4995917;28;20078;-74
2023/03/11 09:18:24;;;;;;;0.75;0.47;;;6.20;57.80;;;;;;4995302;28;20101;-74
2023/03/11 09:20:49;;;;;;;1.05;0.47;;;6.30;57.60;;;;;;4995673;28;20065;-74
2023/03/11 09:23:16;;;;;;;1.52;0.50;;;6.30;55.50;;;;;;4998104;28;20037;-73
2023/03/11 09:25:42;;;;;;;0.73;0.47;;;6.30;56.10;;;;;;4996143;28;20477;-74
2023/03/11 09:28:08;;;;;;;1.00;0.45;;;6.30;55.70;;;;;;4995437;28;20029;-74
2023/03/11 09:30:34;;;;;;;1.25;0.40;;;6.40;55.60;;;;;;4997570;28;20031;-74
2023/03/11 09:33:00;;;;;;;0.88;0.32;;;6.40;54.40;;;;;;4996819;28;20460;-74
2023/03/11 09:35:26;;;;;;;1.75;0.40;;;6.50;54.50;;;;;;4996799;28;20042;-74
2023/03/11 09:37:51;;;;;;;0.85;0.40;;;6.70;53.90;;;;;;4998219;28;20030;-74
2023/03/11 09:40:20;;;;;;;1.17;0.82;;;6.70;52.70;;;;;;4995026;28;20345;-74
2023/03/11 09:43:30;;;;;;;2.78;0.60;;;6.60;53.10;;;;;;4996800;28;20042;-73
2023/03/11 09:46:18;;;;;;;0.73;0.38;;;6.40;53.40;;;;;;5009837;28;20033;-74
2023/03/11 09:49:00;;;;;;;0.47;0.30;;;6.10;54.90;;;;;;4999700;28;20030;-74
2023/03/11 09:51:29;;;;;;;0.60;0.40;;;6.20;55.80;;;;;;4993808;28;20030;-74
2023/03/11 09:54:02;;;;;;;2.72;0.73;;;6.60;54.30;;;;;;4995864;28;20434;-75
2023/03/11 09:56:29;;;;;;;0.80;0.32;;;6.90;52.70;;;;;;4993437;28;20069;-73
2023/03/11 09:59:01;;;;;;;1.02;0.40;;;7.10;52.80;;;;;;4993777;28;20479;-74
2023/03/11 10:01:33;;;;;;;3.22;0.47;;;7.50;52.70;;;;;;5008718;28;20408;-73
2023/03/11 10:04:20;;;;;;;0.82;0.63;;;7.80;51.60;;;;;;4983321;28;20034;-75
2023/03/11 10:06:46;;;;;;;1.00;0.30;;;7.70;49.20;;;;;;5004751;28;20026;-74
2023/03/11 10:09:34;;;;;;;0.77;0.20;;;7.70;49.20;;;;;;5002507;28;20037;-74
2023/03/11 10:12:16;;;;;;;0.25;0.20;;;7.70;49.00;;;;;;5001071;28;20033;-75
2023/03/11 10:15:00;;;;;;;0.40;0.23;;;7.60;48.80;;;;;;5013184;28;20360;-74
2023/03/11 10:18:08;;;;;;;1.33;0.45;;;7.30;48.30;;;;;;4981994;28;20769;-75
2023/03/11 10:20:57;;;;;;;0.90;0.30;;;6.60;50.10;;;;;;4993763;28;20048;-74
2023/03/11 10:23:37;;;;;;;1.20;0.50;;;6.50;50.80;;;;;;4986932;28;20101;-74
2023/03/11 10:26:05;;;;;;;1.17;0.50;;;6.20;50.80;;;;;;4993857;28;20022;-75
2023/03/11 10:29:01;;;;;;;1.40;0.82;;;6.20;51.50;;;;;;4993846;28;20026;-74
2023/03/11 10:31:29;;;;;;;0.65;0.30;;;6.50;52.20;;;;;;4993885;28;20215;-74
2023/03/11 10:34:09;;;;;;;1.63;0.40;;;6.70;52.00;;;;;;5006877;28;20030;-74
2023/03/11 10:36:43;;;;;;;0.60;0.30;;;7.00;50.60;;;;;;5009918;28;20065;-74
2023/03/11 10:39:10;;;;;;;2.83;0.55;;;7.40;50.80;;;;;;5005139;28;20026;-74
2023/03/11 10:41:42;;;;;;;1.98;0.43;;;7.60;51.00;;;;;;5009807;28;20026;-74
2023/03/11 10:44:11;;;;;;;;;;;7.90;51.10;;;;;;5015874;28;20018;-74
2023/03/11 10:46:36;;;;;;;1.52;0.45;;;8.30;48.90;;;;;;5012525;28;19927;-74
2023/03/11 10:49:04;;;;;;;1.65;0.60;;;8.20;50.00;;;;;;5017839;28;20360;-74
2023/03/11 10:51:34;;;;;;;2.22;0.40;;;8.30;49.80;;;;;;5005819;28;20073;-76
2023/03/11 10:54:02;;;;;;;1.40;0.30;;;8.30;49.60;;;;;;4997048;28;20027;-76
2023/03/11 10:56:39;;;;;;;1.60;0.30;;;8.30;49.40;;;;;;4995825;28;20442;-74
2023/03/11 10:59:26;;;;;;;1.02;0.55;;;8.40;50.10;;;;;;4996599;28;20040;-76
2023/03/11 11:01:59;;;;;;;3.90;0.80;;;8.70;48.80;;;;;;4996874;28;20064;-75
2023/03/11 11:04:39;;;;;;;0.70;0.60;;;8.70;48.20;;;;;;4996968;28;20027;-75
2023/03/11 11:07:29;;;;;;;0.68;0.40;;;8.40;48.40;;;;;;5004431;28;20109;-75
2023/03/11 11:10:16;;;;;;;1.75;0.52;;;8.00;49.70;;;;;;5007727;28;20034;-74
2023/03/11 11:13:15;;;;;;;2.80;0.70;;;7.90;50.20;;;;;;5013992;28;20029;-75
2023/03/11 11:15:51;;;;;;;2.33;0.57;;;8.10;48.50;;;;;;5003340;28;20033;-75
2023/03/11 11:18:20;;;;;;;2.15;0.47;;;7.70;49.90;;;;;;5014514;28;20022;-75
2023/03/11 11:20:53;;;;;;;0.75;0.30;;;7.50;50.60;;;;;;5011487;28;20054;-75
2023/03/11 11:23:47;;;;;;;3.10;0.65;;;7.10;50.50;;;;;;5006124;28;20026;-75
2023/03/11 11:26:22;;;;;;;4.07;0.57;;;6.80;51.90;;;;;;5006450;28;20041;-74
2023/03/11 11:29:13;;;;;;;1.63;0.60;;;6.60;51.90;;;;;;4996727;28;20511;-74
2023/03/11 11:31:42;;;;;;;3.40;0.65;;;6.40;53.20;;;;;;4997860;28;20472;-74
2023/03/11 11:34:22;;;;;;;1.55;0.70;;;6.40;52.60;;;;;;4998946;28;20074;-74
2023/03/11 11:36:48;;;;;;;1.25;0.40;;;6.10;52.50;;;;;;5002193;28;20018;-74
2023/03/11 11:39:16;;;;;;;4.18;0.60;;;5.60;53.00;;;;;;5009764;28;20356;-74
2023/03/11 11:41:44;;;;;;;1.65;0.60;;;5.60;53.60;;;;;;5015422;28;20025;-75
2023/03/11 11:44:16;;;;;;;0.95;0.30;;;5.90;53.80;;;;;;5018242;28;20038;-74
2023/03/11 11:46:50;;;;;;;1.02;0.50;;;6.30;54.20;;;;;;5017819;28;20026;-75
2023/03/11 11:49:21;;;;;;;0.50;0.50;;;6.70;53.00;;;;;;5015414;28;20025;-75
2023/03/11 11:52:01;;;;;;;3.33;0.47;;;7.00;51.00;;;;;;5015797;28;20018;-74
2023/03/11 11:54:30;;;;;;;2.70;0.50;;;7.20;51.00;;;;;;5006226;28;20495;-73
2023/03/11 11:56:57;;;;;;;2.65;0.50;;;7.10;49.90;;;;;;4997012;28;20550;-74
2023/03/11 11:59:24;;;;;;;0.20;0.20;;;6.80;50.60;;;;;;5011654;28;20100;-75
2023/03/11 12:02:25;;;;;;;1.00;0.40;;;6.60;51.00;;;;;;5001824;28;20046;-75
2023/03/11 12:05:06;;;;;;;0.80;0.43;;;6.20;52.30;;;;;;4995646;28;20153;-74
2023/03/11 12:07:52;;;;;;;3.90;0.32;;;6.30;53.40;;;;;;4994486;28;20014;-74
2023/03/11 12:10:44;;;;;;;0.73;0.40;;;6.60;53.40;;;;;;5014057;28;20061;-75
2023/03/11 12:13:29;;;;;;;2.58;0.40;;;6.90;51.10;;;;;;4978064;28;20031;-74
2023/03/11 12:16:14;;;;;;;1.65;0.43;;;6.90;50.40;;;;;;4994781;28;20076;-74
2023/03/11 12:18:49;;;;;;;1.15;0.45;;;7.10;50.30;;;;;;5014994;28;20029;-74
2023/03/11 12:21:22;;;;;;;0.95;0.20;;;7.20;48.90;;;;;;5010065;28;20030;-73
2023/03/11 12:23:57;;;;;;;1.40;0.63;;;7.20;49.60;;;;;;4993871;28;20066;-74
2023/03/11 12:26:26;;;;;;;4.32;0.63;;;7.30;49.80;;;;;;4995579;28;20026;-74
2023/03/11 12:29:15;;;;;;;3.33;0.40;;;7.50;49.30;;;;;;4995735;28;20061;-74
2023/03/11 12:31:42;;;;;;;2.40;0.70;;;7.60;49.20;;;;;;5008517;28;20534;-74
2023/03/11 12:34:11;;;;;;;1.65;0.38;;;7.50;49.00;;;;;;5012533;28;20101;-74
2023/03/11 12:36:42;;;;;;;1.38;0.60;;;7.30;50.10;;;;;;4996327;28;20022;-75
2023/03/11 12:39:38;;;;;;;1.08;0.32;;;7.50;50.00;;;;;;5007338;28;20026;-75
2023/03/11 12:42:25;;;;;;;1.95;0.38;;;7.50;49.80;;;;;;5011315;28;20022;-75
2023/03/11 12:44:52;;;;;;;1.13;0.45;;;7.60;49.70;;;;;;4997119;28;20033;-74
2023/03/11 12:47:22;;;;;;;0.88;0.40;;;7.80;48.50;;;;;;4996551;28;20049;-75
2023/03/11 12:49:55;;;;;;;0.75;0.38;;;7.60;48.30;;;;;;4995915;28;20084;-74
2023/03/11 12:52:25;;;;;;;0.60;0.40;;;7.50;49.20;;;;;;5003645;28;20438;-74
2023/03/11 12:54:59;;;;;;;0.80;0.47;;;7.40;48.80;;;;;;4995086;28;20022;-74
2023/03/11 12:57:35;;;;;;;3.10;0.52;;;7.30;49.70;;;;;;4995123;28;20030;-74
2023/03/11 13:00:23;;;;;;;1.45;0.40;;;7.30;49.60;;;;;;4997084;28;20022;-74
2023/03/11 13:03:04;;;;;;;1.35;0.52;;;7.60;50.30;;;;;;5003010;28;20081;-74
2023/03/11 13:05:46;;;;;;;1.63;0.50;;;7.90;49.50;;;;;;5013568;28;20470;-75
2023/03/11 13:08:20;;;;;;;2.42;0.65;;;7.90;49.40;;;;;;5000295;28;20030;-75
2023/03/11 13:10:48;;;;;;;2.75;0.68;;;8.00;50.20;;;;;;4994883;28;20035;-75